sensor_id;sensor_type;location;lat;lon;timestamp;pressure;altitude;pressure_sealevel;temperature;humidity
65359;BME280;52491;45.900;6.346;2023-04-07T00:02:15;93813.44;;;23.40;25.51
65359;BME280;52491;45.900;6.346;2023-04-07T00:04:41;93806.25;;;23.41;25.15
65359;BME280;52491;45.900;6.346;2023-04-07T00:07:06;93814.22;;;23.41;25.12
65359;BME280;52491;45.900;6.346;2023-04-07T00:09:32;93806.25;;;23.41;25.12
65359;BME280;52491;45.900;6.346;2023-04-07T00:11:58;93812.63;;;23.40;25.04
65359;BME280;52491;45.900;6.346;2023-04-07T00:14:26;93812.63;;;23.40;25.02
65359;BME280;52491;45.900;6.346;2023-04-07T00:16:51;93802.00;;;23.40;25.03
65359;BME280;52491;45.900;6.346;2023-04-07T00:19:17;93814.50;;;23.39;25.02
65359;BME280;52491;45.900;6.346;2023-04-07T00:21:42;93804.09;;;23.38;25.02
65359;BME280;52491;45.900;6.346;2023-04-07T00:24:08;93801.44;;;23.38;25.04
65359;BME280;52491;45.900;6.346;2023-04-07T00:26:34;93804.38;;;23.36;24.88
65359;BME280;52491;45.900;6.346;2023-04-07T00:28:59;93798.78;;;23.38;24.99
65359;BME280;52491;45.900;6.346;2023-04-07T00:31:25;93797.97;;;23.37;24.84
65359;BME280;52491;45.900;6.346;2023-04-07T00:33:51;93792.66;;;23.37;25.01
65359;BME280;52491;45.900;6.346;2023-04-07T00:36:16;93789.22;;;23.37;24.84
65359;BME280;52491;45.900;6.346;2023-04-07T00:38:42;93787.34;;;23.37;24.87
65359;BME280;52491;45.900;6.346;2023-04-07T00:41:08;93775.09;;;23.36;24.74
65359;BME280;52491;45.900;6.346;2023-04-07T00:43:33;93771.38;;;23.37;24.96
65359;BME280;52491;45.900;6.346;2023-04-07T00:45:59;93772.44;;;23.36;24.90
65359;BME280;52491;45.900;6.346;2023-04-07T00:48:25;93769.00;;;23.36;24.90
65359;BME280;52491;45.900;6.346;2023-04-07T00:50:51;93762.84;;;23.35;24.75
65359;BME280;52491;45.900;6.346;2023-04-07T00:53:17;93758.34;;;23.36;24.73
65359;BME280;52491;45.900;6.346;2023-04-07T00:55:42;93757.53;;;23.35;24.88
65359;BME280;52491;45.900;6.346;2023-04-07T00:58:08;93753.03;;;23.36;24.68
65359;BME280;52491;45.900;6.346;2023-04-07T01:00:56;93752.22;;;23.35;24.92
65359;BME280;52491;45.900;6.346;2023-04-07T01:06:22;93752.47;;;23.34;24.80
65359;BME280;52491;45.900;6.346;2023-04-07T01:08:53;93750.84;;;23.33;24.88
65359;BME280;52491;45.900;6.346;2023-04-07T01:11:54;93746.63;;;23.32;24.55
65359;BME280;52491;45.900;6.346;2023-04-07T01:14:23;93740.50;;;23.31;24.61
65359;BME280;52491;45.900;6.346;2023-04-07T01:16:51;93747.41;;;23.32;24.54
65359;BME280;52491;45.900;6.346;2023-04-07T01:19:36;93746.66;;;23.42;24.35
65359;BME280;52491;45.900;6.346;2023-04-07T01:22:14;93750.91;;;23.38;24.56
65359;BME280;52491;45.900;6.346;2023-04-07T01:27:48;93745.03;;;23.31;24.63
65359;BME280;52491;45.900;6.346;2023-04-07T01:30:18;93745.03;;;23.31;24.38
65359;BME280;52491;45.900;6.346;2023-04-07T01:32:49;93739.47;;;23.37;24.37
65359;BME280;52491;45.900;6.346;2023-04-07T01:35:17;93740.56;;;23.41;24.22
65359;BME280;52491;45.900;6.346;2023-04-07T01:37:44;93744.81;;;23.42;24.46
65359;BME280;52491;45.900;6.346;2023-04-07T01:40:13;93741.34;;;23.42;24.44
65359;BME280;52491;45.900;6.346;2023-04-07T01:42:41;93750.13;;;23.42;24.35
65359;BME280;52491;45.900;6.346;2023-04-07T01:45:07;93749.06;;;23.43;24.16
65359;BME280;52491;45.900;6.346;2023-04-07T01:47:38;93748.22;;;23.38;24.16
65359;BME280;52491;45.900;6.346;2023-04-07T01:50:04;93742.88;;;23.33;24.26
65359;BME280;52491;45.900;6.346;2023-04-07T01:52:34;93747.41;;;23.32;24.38
65359;BME280;52491;45.900;6.346;2023-04-07T01:55:01;93752.72;;;23.32;24.27
65359;BME280;52491;45.900;6.346;2023-04-07T01:57:27;93747.41;;;23.32;24.49
65359;BME280;52491;45.900;6.346;2023-04-07T01:59:52;93743.16;;;23.31;24.09
65359;BME280;52491;45.900;6.346;2023-04-07T02:02:18;93735.19;;;23.31;24.30
65359;BME280;52491;45.900;6.346;2023-04-07T02:05:00;93735.97;;;23.32;24.21
65359;BME280;52491;45.900;6.346;2023-04-07T02:10:06;93732.75;;;23.30;24.09
65359;BME280;52491;45.900;6.346;2023-04-07T02:12:34;93729.84;;;23.31;24.24
65359;BME280;52491;45.900;6.346;2023-04-07T02:15:02;93725.59;;;23.30;24.28
65359;BME280;52491;45.900;6.346;2023-04-07T02:17:29;93729.06;;;23.31;24.17
65359;BME280;52491;45.900;6.346;2023-04-07T02:19:58;93728.25;;;23.30;24.19
65359;BME280;52491;45.900;6.346;2023-04-07T02:22:25;93718.66;;;23.29;24.19
65359;BME280;52491;45.900;6.346;2023-04-07T02:24:51;93730.38;;;23.28;24.16
65359;BME280;52491;45.900;6.346;2023-04-07T02:27:16;93730.94;;;23.30;24.17
65359;BME280;52491;45.900;6.346;2023-04-07T02:29:42;93730.94;;;23.30;23.98
65359;BME280;52491;45.900;6.346;2023-04-07T02:32:08;93732.75;;;23.30;24.00
65359;BME280;52491;45.900;6.346;2023-04-07T02:34:33;93716.00;;;23.29;23.96
65359;BME280;52491;45.900;6.346;2023-04-07T02:36:59;93716.81;;;23.30;23.92
65359;BME280;52491;45.900;6.346;2023-04-07T02:39:25;93716.00;;;23.29;23.91
65359;BME280;52491;45.900;6.346;2023-04-07T02:41:50;93716.00;;;23.29;23.98
65359;BME280;52491;45.900;6.346;2023-04-07T02:44:16;93708.03;;;23.29;23.96
65359;BME280;52491;45.900;6.346;2023-04-07T02:46:41;93706.16;;;23.30;24.00
65359;BME280;52491;45.900;6.346;2023-04-07T02:49:07;93712.31;;;23.30;24.04
65359;BME280;52491;45.900;6.346;2023-04-07T02:51:32;93702.47;;;23.31;23.96
65359;BME280;52491;45.900;6.346;2023-04-07T02:53:58;93695.28;;;23.31;23.88
65359;BME280;52491;45.900;6.346;2023-04-07T02:56:24;93691.81;;;23.31;23.96
65359;BME280;52491;45.900;6.346;2023-04-07T02:58:49;93687.28;;;23.31;23.93
65359;BME280;52491;45.900;6.346;2023-04-07T03:01:15;93679.56;;;23.30;23.86
65359;BME280;52491;45.900;6.346;2023-04-07T03:03:40;93674.78;;;23.32;23.93
65359;BME280;52491;45.900;6.346;2023-04-07T03:06:09;93670.53;;;23.31;23.90
65359;BME280;52491;45.900;6.346;2023-04-07T03:08:34;93665.22;;;23.31;23.87
65359;BME280;52491;45.900;6.346;2023-04-07T03:11:00;93671.34;;;23.31;24.09
65359;BME280;52491;45.900;6.346;2023-04-07T03:13:26;93663.34;;;23.31;23.83
65359;BME280;52491;45.900;6.346;2023-04-07T03:15:54;93661.78;;;23.30;23.96
65359;BME280;52491;45.900;6.346;2023-04-07T03:18:19;93659.09;;;23.30;23.75
65359;BME280;52491;45.900;6.346;2023-04-07T03:20:47;93663.34;;;23.31;23.82
65359;BME280;52491;45.900;6.346;2023-04-07T03:23:13;93663.34;;;23.31;23.86
65359;BME280;52491;45.900;6.346;2023-04-07T03:25:39;93662.28;;;23.32;23.98
65359;BME280;52491;45.900;6.346;2023-04-07T03:28:05;93652.72;;;23.31;23.79
65359;BME280;52491;45.900;6.346;2023-04-07T03:30:30;93651.66;;;23.32;23.77
65359;BME280;52491;45.900;6.346;2023-04-07T03:32:56;93640.22;;;23.32;23.85
65359;BME280;52491;45.900;6.346;2023-04-07T03:35:21;93632.22;;;23.32;23.83
65359;BME280;52491;45.900;6.346;2023-04-07T03:37:48;93628.78;;;23.31;23.74
65359;BME280;52491;45.900;6.346;2023-04-07T03:40:14;93633.03;;;23.32;23.90
65359;BME280;52491;45.900;6.346;2023-04-07T03:42:41;93621.34;;;23.33;23.96
65359;BME280;52491;45.900;6.346;2023-04-07T03:45:08;93612.53;;;23.33;24.05
65359;BME280;52491;45.900;6.346;2023-04-07T03:47:34;93613.38;;;23.33;23.98
65359;BME280;52491;45.900;6.346;2023-04-07T03:49:59;93612.28;;;23.34;24.00
65359;BME280;52491;45.900;6.346;2023-04-07T03:52:25;93611.22;;;23.35;23.85
65359;BME280;52491;45.900;6.346;2023-04-07T03:54:51;93602.19;;;23.36;23.97
65359;BME280;52491;45.900;6.346;2023-04-07T03:57:16;93604.06;;;23.36;24.06
65359;BME280;52491;45.900;6.346;2023-04-07T03:59:42;93596.09;;;23.36;23.97
65359;BME280;52491;45.900;6.346;2023-04-07T04:02:07;93597.66;;;23.37;24.02
65359;BME280;52491;45.900;6.346;2023-04-07T04:04:33;93594.22;;;23.36;24.04
65359;BME280;52491;45.900;6.346;2023-04-07T04:06:59;93580.91;;;23.36;23.95
65359;BME280;52491;45.900;6.346;2023-04-07T04:09:24;93577.19;;;23.37;24.11
65359;BME280;52491;45.900;6.346;2023-04-07T04:11:50;93563.88;;;23.37;24.12
65359;BME280;52491;45.900;6.346;2023-04-07T04:14:15;93561.22;;;23.37;24.13
65359;BME280;52491;45.900;6.346;2023-04-07T04:16:41;93567.34;;;23.38;23.90
65359;BME280;52491;45.900;6.346;2023-04-07T04:19:07;93568.97;;;23.39;24.05
65359;BME280;52491;45.900;6.346;2023-04-07T04:21:33;93571.63;;;23.39;23.97
65359;BME280;52491;45.900;6.346;2023-04-07T04:23:58;93571.63;;;23.39;24.03
65359;BME280;52491;45.900;6.346;2023-04-07T04:26:24;93567.88;;;23.40;23.97
65359;BME280;52491;45.900;6.346;2023-04-07T04:28:50;93560.69;;;23.40;23.95
65359;BME280;52491;45.900;6.346;2023-04-07T04:31:17;93555.38;;;23.40;24.06
65359;BME280;52491;45.900;6.346;2023-04-07T04:33:42;93550.06;;;23.40;24.35
65359;BME280;52491;45.900;6.346;2023-04-07T04:36:08;93544.72;;;23.40;24.07
65359;BME280;52491;45.900;6.346;2023-04-07T04:38:34;93542.06;;;23.40;24.07
65359;BME280;52491;45.900;6.346;2023-04-07T04:40:59;93540.22;;;23.41;24.05
65359;BME280;52491;45.900;6.346;2023-04-07T04:43:25;93539.41;;;23.40;23.99
65359;BME280;52491;45.900;6.346;2023-04-07T04:45:50;93536.50;;;23.42;24.12
65359;BME280;52491;45.900;6.346;2023-04-07T04:48:16;93544.47;;;23.42;24.22
65359;BME280;52491;45.900;6.346;2023-04-07T04:50:42;93556.72;;;23.43;24.19
65359;BME280;52491;45.900;6.346;2023-04-07T04:53:08;93583.31;;;23.43;24.21
65359;BME280;52491;45.900;6.346;2023-04-07T04:55:35;93576.66;;;23.45;24.34
65359;BME280;52491;45.900;6.346;2023-04-07T04:58:00;93571.59;;;23.44;24.40
65359;BME280;52491;45.900;6.346;2023-04-07T05:00:26;93584.91;;;23.44;24.35
65359;BME280;52491;45.900;6.346;2023-04-07T05:02:52;93587.56;;;23.44;24.38
65359;BME280;52491;45.900;6.346;2023-04-07T05:05:17;93608.06;;;23.43;24.51
65359;BME280;52491;45.900;6.346;2023-04-07T05:07:43;93610.47;;;23.45;24.56
65359;BME280;52491;45.900;6.346;2023-04-07T05:10:09;93618.44;;;23.45;24.80
65359;BME280;52491;45.900;6.346;2023-04-07T05:12:35;93625.63;;;23.44;24.56
65359;BME280;52491;45.900;6.346;2023-04-07T05:15:01;93629.34;;;23.43;24.54
65359;BME280;52491;45.900;6.346;2023-04-07T05:17:26;93616.31;;;23.42;24.46
65359;BME280;52491;45.900;6.346;2023-04-07T05:19:52;93620.28;;;23.39;24.34
65359;BME280;52491;45.900;6.346;2023-04-07T05:22:17;93617.09;;;23.37;24.28
65359;BME280;52491;45.900;6.346;2023-04-07T05:24:43;93631.47;;;23.36;24.20
65359;BME280;52491;45.900;6.346;2023-04-07T05:27:08;93627.72;;;23.37;24.41
65359;BME280;52491;45.900;6.346;2023-04-07T05:29:34;93639.72;;;23.40;24.45
65359;BME280;52491;45.900;6.346;2023-04-07T05:32:00;93635.97;;;23.41;24.64
65359;BME280;52491;45.900;6.346;2023-04-07T05:34:26;93635.72;;;23.42;24.72
65359;BME280;52491;45.900;6.346;2023-04-07T05:36:53;93638.94;;;23.44;24.56
65359;BME280;52491;45.900;6.346;2023-04-07T05:39:20;93639.72;;;23.45;24.68
65359;BME280;52491;45.900;6.346;2023-04-07T05:41:47;93640.78;;;23.44;24.81
65359;BME280;52491;45.900;6.346;2023-04-07T05:44:12;93650.38;;;23.45;24.83
65359;BME280;52491;45.900;6.346;2023-04-07T05:46:38;93650.63;;;23.43;24.85
65359;BME280;52491;45.900;6.346;2023-04-07T05:49:03;93646.63;;;23.46;24.94
65359;BME280;52491;45.900;6.346;2023-04-07T05:51:29;93653.81;;;23.45;24.97
65359;BME280;52491;45.900;6.346;2023-04-07T05:53:55;93656.47;;;23.45;24.99
65359;BME280;52491;45.900;6.346;2023-04-07T05:56:21;93659.16;;;23.45;24.90
65359;BME280;52491;45.900;6.346;2023-04-07T05:58:47;93661.00;;;23.45;25.01
65359;BME280;52491;45.900;6.346;2023-04-07T06:01:12;93655.69;;;23.45;24.95
65359;BME280;52491;45.900;6.346;2023-04-07T06:03:38;93655.69;;;23.45;24.97
65359;BME280;52491;45.900;6.346;2023-04-07T06:06:05;93658.06;;;23.46;25.10
65359;BME280;52491;45.900;6.346;2023-04-07T06:08:31;93651.97;;;23.46;25.11
65359;BME280;52491;45.900;6.346;2023-04-07T06:10:57;93657.28;;;23.46;25.18
65359;BME280;52491;45.900;6.346;2023-04-07T06:13:22;93662.34;;;23.48;25.27
65359;BME280;52491;45.900;6.346;2023-04-07T06:15:48;93654.38;;;23.48;25.11
65359;BME280;52491;45.900;6.346;2023-04-07T06:18:13;93649.84;;;23.48;25.27
65359;BME280;52491;45.900;6.346;2023-04-07T06:20:39;93641.88;;;23.48;25.18
65359;BME280;52491;45.900;6.346;2023-04-07T06:23:04;93638.41;;;23.48;25.24
65359;BME280;52491;45.900;6.346;2023-04-07T06:25:30;93634.66;;;23.49;25.24
65359;BME280;52491;45.900;6.346;2023-04-07T06:27:56;93635.47;;;23.49;25.22
65359;BME280;52491;45.900;6.346;2023-04-07T06:30:22;93636.53;;;23.48;25.18
65359;BME280;52491;45.900;6.346;2023-04-07T06:32:47;93633.88;;;23.48;25.24
65359;BME280;52491;45.900;6.346;2023-04-07T06:35:13;93644.25;;;23.50;25.41
65359;BME280;52491;45.900;6.346;2023-04-07T06:37:39;93646.91;;;23.50;25.33
65359;BME280;52491;45.900;6.346;2023-04-07T06:40:06;93642.91;;;23.52;25.34
65359;BME280;52491;45.900;6.346;2023-04-07T06:42:31;93651.97;;;23.51;25.32
65359;BME280;52491;45.900;6.346;2023-04-07T06:44:57;93654.88;;;23.50;25.52
65359;BME280;52491;45.900;6.346;2023-04-07T06:47:23;93665.53;;;23.50;25.50
65359;BME280;52491;45.900;6.346;2023-04-07T06:49:48;93684.97;;;23.50;25.40
65359;BME280;52491;45.900;6.346;2023-04-07T06:52:14;93698.28;;;23.50;25.44
65359;BME280;52491;45.900;6.346;2023-04-07T06:54:39;93722.22;;;23.50;25.51
65359;BME280;52491;45.900;6.346;2023-04-07T06:57:05;93726.72;;;23.50;25.37
65359;BME280;52491;45.900;6.346;2023-04-07T06:59:36;93719.28;;;23.52;25.43
65359;BME280;52491;45.900;6.346;2023-04-07T07:02:03;93728.88;;;23.53;25.49
65359;BME280;52491;45.900;6.346;2023-04-07T07:04:29;93734.72;;;23.55;25.37
65359;BME280;52491;45.900;6.346;2023-04-07T07:06:54;93727.28;;;23.52;25.57
65359;BME280;52491;45.900;6.346;2023-04-07T07:09:20;93733.66;;;23.51;25.55
65359;BME280;52491;45.900;6.346;2023-04-07T07:11:46;93732.03;;;23.50;25.80
65359;BME280;52491;45.900;6.346;2023-04-07T07:14:12;93726.72;;;23.50;25.55
65359;BME280;52491;45.900;6.346;2023-04-07T07:16:37;93723.28;;;23.49;25.52
65359;BME280;52491;45.900;6.346;2023-04-07T07:19:03;93735.78;;;23.49;25.67
65359;BME280;52491;45.900;6.346;2023-04-07T07:21:29;93732.88;;;23.50;25.63
65359;BME280;52491;45.900;6.346;2023-04-07T07:23:55;93731.00;;;23.51;25.77
65359;BME280;52491;45.900;6.346;2023-04-07T07:26:21;93741.66;;;23.51;25.62
65359;BME280;52491;45.900;6.346;2023-04-07T07:28:46;93742.69;;;23.50;25.72
65359;BME280;52491;45.900;6.346;2023-04-07T07:31:12;93743.50;;;23.50;25.72
65359;BME280;52491;45.900;6.346;2023-04-07T07:33:40;93739.00;;;23.51;25.55
65359;BME280;52491;45.900;6.346;2023-04-07T07:36:07;93746.97;;;23.51;25.74
65359;BME280;52491;45.900;6.346;2023-04-07T07:38:33;93743.50;;;23.50;25.56
65359;BME280;52491;45.900;6.346;2023-04-07T07:40:58;93743.50;;;23.50;25.62
65359;BME280;52491;45.900;6.346;2023-04-07T07:43:24;93748.00;;;23.50;25.75
65359;BME280;52491;45.900;6.346;2023-04-07T07:45:50;93748.00;;;23.50;25.58
65359;BME280;52491;45.900;6.346;2023-04-07T07:48:15;93748.84;;;23.50;25.65
65359;BME280;52491;45.900;6.346;2023-04-07T07:50:41;93755.75;;;23.51;25.62
65359;BME280;52491;45.900;6.346;2023-04-07T07:53:09;93743.50;;;23.50;25.62
65359;BME280;52491;45.900;6.346;2023-04-07T07:55:34;93744.31;;;23.51;25.60
65359;BME280;52491;45.900;6.346;2023-04-07T07:58:00;93750.66;;;23.50;25.60
65359;BME280;52491;45.900;6.346;2023-04-07T08:00:26;93741.66;;;23.51;25.80
65359;BME280;52491;45.900;6.346;2023-04-07T08:02:51;93750.66;;;23.50;25.56
65359;BME280;52491;45.900;6.346;2023-04-07T08:05:17;93748.84;;;23.50;25.71
65359;BME280;52491;45.900;6.346;2023-04-07T08:07:43;93754.94;;;23.51;25.62
65359;BME280;52491;45.900;6.346;2023-04-07T08:10:08;93752.28;;;23.51;25.65
65359;BME280;52491;45.900;6.346;2023-04-07T08:12:34;93753.09;;;23.51;25.68
65359;BME280;52491;45.900;6.346;2023-04-07T08:15:00;93759.47;;;23.50;25.60
65359;BME280;52491;45.900;6.346;2023-04-07T08:17:26;93758.66;;;23.50;25.63
65359;BME280;52491;45.900;6.346;2023-04-07T08:19:52;93759.47;;;23.50;25.65
65359;BME280;52491;45.900;6.346;2023-04-07T08:22:17;93755.19;;;23.49;25.62
65359;BME280;52491;45.900;6.346;2023-04-07T08:24:45;93756.81;;;23.50;25.68
65359;BME280;52491;45.900;6.346;2023-04-07T08:27:12;93768.25;;;23.51;25.66
65359;BME280;52491;45.900;6.346;2023-04-07T08:29:38;93760.53;;;23.49;25.66
65359;BME280;52491;45.900;6.346;2023-04-07T08:32:03;93763.97;;;23.50;25.68
65359;BME280;52491;45.900;6.346;2023-04-07T08:34:29;93761.31;;;23.50;25.75
65359;BME280;52491;45.900;6.346;2023-04-07T08:36:55;93770.13;;;23.50;25.74
65359;BME280;52491;45.900;6.346;2023-04-07T08:39:20;93767.72;;;23.54;25.67
65359;BME280;52491;45.900;6.346;2023-04-07T08:41:47;93777.03;;;23.51;25.62
65359;BME280;52491;45.900;6.346;2023-04-07T08:44:15;93770.91;;;23.51;25.80
65359;BME280;52491;45.900;6.346;2023-04-07T08:46:42;93774.38;;;23.51;25.82
65359;BME280;52491;45.900;6.346;2023-04-07T08:49:09;93769.06;;;23.51;25.78
65359;BME280;52491;45.900;6.346;2023-04-07T08:51:45;93765.59;;;23.51;25.58
65359;BME280;52491;45.900;6.346;2023-04-07T08:54:14;93768.25;;;23.51;25.76
65359;BME280;52491;45.900;6.346;2023-04-07T08:56:41;93771.97;;;23.50;25.78
65359;BME280;52491;45.900;6.346;2023-04-07T08:59:10;93769.28;;;23.50;25.56
65359;BME280;52491;45.900;6.346;2023-04-07T09:01:36;93770.91;;;23.51;25.84
65359;BME280;52491;45.900;6.346;2023-04-07T09:04:03;93779.94;;;23.50;25.55
65359;BME280;52491;45.900;6.346;2023-04-07T09:06:29;93775.44;;;23.50;25.69
65359;BME280;52491;45.900;6.346;2023-04-07T09:08:57;93771.97;;;23.50;25.83
65359;BME280;52491;45.900;6.346;2023-04-07T09:11:26;93775.44;;;23.50;25.57
65359;BME280;52491;45.900;6.346;2023-04-07T09:13:52;93777.03;;;23.51;25.83
65359;BME280;52491;45.900;6.346;2023-04-07T09:16:18;93764.81;;;23.50;25.71
65359;BME280;52491;45.900;6.346;2023-04-07T09:18:45;93770.91;;;23.51;25.73
65359;BME280;52491;45.900;6.346;2023-04-07T09:21:12;93768.25;;;23.51;25.76
65359;BME280;52491;45.900;6.346;2023-04-07T09:23:41;93769.06;;;23.51;25.56
65359;BME280;52491;45.900;6.346;2023-04-07T09:28:56;93774.91;;;23.53;25.68
65359;BME280;52491;45.900;6.346;2023-04-07T09:31:45;93768.53;;;23.54;25.84
65359;BME280;52491;45.900;6.346;2023-04-07T09:34:32;93769.31;;;23.55;25.82
65359;BME280;52491;45.900;6.346;2023-04-07T09:37:00;93761.34;;;23.55;25.65
65359;BME280;52491;45.900;6.346;2023-04-07T09:39:28;93761.09;;;23.56;25.54
65359;BME280;52491;45.900;6.346;2023-04-07T09:41:55;93764.56;;;23.57;25.57
65359;BME280;52491;45.900;6.346;2023-04-07T09:44:23;93761.66;;;23.58;25.60
65359;BME280;52491;45.900;6.346;2023-04-07T09:46:57;93753.38;;;23.60;25.55
65359;BME280;52491;45.900;6.346;2023-04-07T09:49:24;93741.66;;;23.61;25.52
65359;BME280;52491;45.900;6.346;2023-04-07T09:51:58;93744.09;;;23.62;25.57
65359;BME280;52491;45.900;6.346;2023-04-07T09:54:38;93746.50;;;23.64;25.46
65359;BME280;52491;45.900;6.346;2023-04-07T09:57:09;93737.69;;;23.63;25.50
65359;BME280;52491;45.900;6.346;2023-04-07T09:59:37;93739.56;;;23.63;25.57
65359;BME280;52491;45.900;6.346;2023-04-07T10:02:03;93727.31;;;23.62;25.59
65359;BME280;52491;45.900;6.346;2023-04-07T10:04:29;93727.88;;;23.64;25.52
65359;BME280;52491;45.900;6.346;2023-04-07T10:06:56;93725.72;;;23.66;25.51
65359;BME280;52491;45.900;6.346;2023-04-07T10:09:25;93721.47;;;23.65;25.54
65359;BME280;52491;45.900;6.346;2023-04-07T10:11:52;93722.53;;;23.64;25.67
65359;BME280;52491;45.900;6.346;2023-04-07T10:14:20;93714.28;;;23.65;25.72
65359;BME280;52491;45.900;6.346;2023-04-07T10:16:46;93710.53;;;23.66;25.44
65359;BME280;52491;45.900;6.346;2023-04-07T10:19:13;93706.28;;;23.65;25.57
65359;BME280;52491;45.900;6.346;2023-04-07T10:21:41;93703.38;;;23.67;25.78
65359;BME280;52491;45.900;6.346;2023-04-07T10:24:45;93714.03;;;23.67;25.68
65359;BME280;52491;45.900;6.346;2023-04-07T10:27:21;93701.78;;;23.66;25.73
65359;BME280;52491;45.900;6.346;2023-04-07T10:29:50;93698.31;;;23.65;25.72
65359;BME280;52491;45.900;6.346;2023-04-07T10:32:17;93692.19;;;23.65;25.93
65359;BME280;52491;45.900;6.346;2023-04-07T10:37:23;93687.41;;;23.67;25.64
65359;BME280;52491;45.900;6.346;2023-04-07T10:40:35;93685.56;;;23.67;25.85
65359;BME280;52491;45.900;6.346;2023-04-07T10:45:05;93675.69;;;23.68;25.88
65359;BME280;52491;45.900;6.346;2023-04-07T10:47:31;93671.97;;;23.69;25.79
65359;BME280;52491;45.900;6.346;2023-04-07T10:50:17;93673.59;;;23.70;25.82
65359;BME280;52491;45.900;6.346;2023-04-07T10:52:44;93665.84;;;23.68;26.02
65359;BME280;52491;45.900;6.346;2023-04-07T10:55:34;93666.44;;;23.71;25.90
65359;BME280;52491;45.900;6.346;2023-04-07T11:00:42;93652.53;;;23.68;25.89
65359;BME280;52491;45.900;6.346;2023-04-07T11:03:35;93653.13;;;23.71;25.83
65359;BME280;52491;45.900;6.346;2023-04-07T11:06:06;93653.66;;;23.73;26.24
65359;BME280;52491;45.900;6.346;2023-04-07T11:08:37;93645.69;;;23.73;26.44
65359;BME280;52491;45.900;6.346;2023-04-07T11:11:06;93649.13;;;23.73;26.32
65359;BME280;52491;45.900;6.346;2023-04-07T11:13:49;93640.88;;;23.75;26.49
65359;BME280;52491;45.900;6.346;2023-04-07T11:16:18;93633.72;;;23.75;26.35
65359;BME280;52491;45.900;6.346;2023-04-07T11:18:45;93636.88;;;23.77;26.68
65359;BME280;52491;45.900;6.346;2023-04-07T11:21:16;93621.69;;;23.78;26.43
65359;BME280;52491;45.900;6.346;2023-04-07T11:23:44;93627.03;;;23.78;26.51
65359;BME280;52491;45.900;6.346;2023-04-07T11:26:13;93628.38;;;23.80;26.47
65359;BME280;52491;45.900;6.346;2023-04-07T11:28:52;93636.88;;;23.82;26.47
65359;BME280;52491;45.900;6.346;2023-04-07T11:31:25;93628.13;;;23.82;26.55
65359;BME280;52491;45.900;6.346;2023-04-07T11:33:55;93628.13;;;23.82;26.61
65359;BME280;52491;45.900;6.346;2023-04-07T11:36:33;93626.53;;;23.81;26.76
65359;BME280;52491;45.900;6.346;2023-04-07T11:39:01;93630.22;;;23.80;26.79
65359;BME280;52491;45.900;6.346;2023-04-07T11:41:29;93634.50;;;23.81;26.74
65359;BME280;52491;45.900;6.346;2023-04-07T11:46:30;93630.78;;;23.82;26.95
65359;BME280;52491;45.900;6.346;2023-04-07T11:49:10;93631.56;;;23.82;26.83
65359;BME280;52491;45.900;6.346;2023-04-07T11:51:37;93630.78;;;23.82;26.64
65359;BME280;52491;45.900;6.346;2023-04-07T11:54:03;93628.13;;;23.82;26.72
65359;BME280;52491;45.900;6.346;2023-04-07T11:56:29;93638.75;;;23.82;26.75
65359;BME280;52491;45.900;6.346;2023-04-07T11:58:55;93639.56;;;23.82;26.81
65359;BME280;52491;45.900;6.346;2023-04-07T12:01:21;93648.88;;;23.85;26.86
65359;BME280;52491;45.900;6.346;2023-04-07T12:04:00;93647.56;;;23.87;26.76
65359;BME280;52491;45.900;6.346;2023-04-07T12:06:34;93661.41;;;23.89;26.64
65359;BME280;52491;45.900;6.346;2023-04-07T12:09:01;93670.72;;;23.92;26.57
65359;BME280;52491;45.900;6.346;2023-04-07T12:11:27;93666.19;;;23.93;26.47
65359;BME280;52491;45.900;6.346;2023-04-07T12:13:53;93669.91;;;23.92;26.71
65359;BME280;52491;45.900;6.346;2023-04-07T12:16:19;93676.84;;;23.93;26.72
65359;BME280;52491;45.900;6.346;2023-04-07T12:18:46;93672.31;;;23.93;26.72
65359;BME280;52491;45.900;6.346;2023-04-07T12:21:11;93680.31;;;23.93;26.75
65359;BME280;52491;45.900;6.346;2023-04-07T12:23:37;93680.31;;;23.93;26.86
65359;BME280;52491;45.900;6.346;2023-04-07T12:26:03;93678.44;;;23.94;26.88
65359;BME280;52491;45.900;6.346;2023-04-07T12:28:28;93678.44;;;23.94;26.66
65359;BME280;52491;45.900;6.346;2023-04-07T12:30:54;93672.31;;;23.93;26.71
65359;BME280;52491;45.900;6.346;2023-04-07T12:33:20;93680.31;;;23.93;26.84
65359;BME280;52491;45.900;6.346;2023-04-07T12:35:46;93678.72;;;23.92;26.64
65359;BME280;52491;45.900;6.346;2023-04-07T12:38:12;93687.50;;;23.93;26.80
65359;BME280;52491;45.900;6.346;2023-04-07T12:40:38;93687.75;;;23.91;26.86
65359;BME280;52491;45.900;6.346;2023-04-07T12:43:04;93685.38;;;23.89;26.75
65359;BME280;52491;45.900;6.346;2023-04-07T12:45:30;93706.38;;;23.91;26.64
65359;BME280;52491;45.900;6.346;2023-04-07T12:47:57;93708.25;;;23.90;27.07
65359;BME280;52491;45.900;6.346;2023-04-07T12:50:23;93715.44;;;23.90;26.67
65359;BME280;52491;45.900;6.346;2023-04-07T12:52:50;93714.66;;;23.89;26.87
65359;BME280;52491;45.900;6.346;2023-04-07T12:55:16;93712.25;;;23.88;26.74
65359;BME280;52491;45.900;6.346;2023-04-07T12:57:42;93712.25;;;23.88;26.96
65359;BME280;52491;45.900;6.346;2023-04-07T13:00:08;93713.03;;;23.88;26.62
65359;BME280;52491;45.900;6.346;2023-04-07T13:02:34;93713.03;;;23.88;26.79
65359;BME280;52491;45.900;6.346;2023-04-07T13:05:02;93707.72;;;23.88;26.70
65359;BME280;52491;45.900;6.346;2023-04-07T13:07:27;93703.47;;;23.87;26.61
65359;BME280;52491;45.900;6.346;2023-04-07T13:09:53;93702.94;;;23.90;26.67
65359;BME280;52491;45.900;6.346;2023-04-07T13:12:19;93701.34;;;23.89;26.61
65359;BME280;52491;45.900;6.346;2023-04-07T13:14:45;93696.53;;;23.92;26.38
65359;BME280;52491;45.900;6.346;2023-04-07T13:17:11;93685.88;;;23.92;26.32
65359;BME280;52491;45.900;6.346;2023-04-07T13:19:36;93680.56;;;23.92;26.40
65359;BME280;52491;45.900;6.346;2023-04-07T13:22:02;93676.06;;;23.92;26.44
65359;BME280;52491;45.900;6.346;2023-04-07T13:24:28;93672.56;;;23.92;26.28